Time;durP1;ratioP1;P1;durP2;ratioP2;P2;SDS_P1;SDS_P2;PMS_P1;PMS_P2;Temp;Humidity;BMP_temperature;BMP_pressure;BME280_temperature;BME280_humidity;BME280_pressure;Samples;Min_cycle;Max_cycle;Signal;HPM_P1;HPM_P2
2021/03/15 00:02:17;;;;;;;5.00;2.50;;;0.90;96.30;;;;;;4999678;28;20428;-74
2021/03/15 00:04:42;;;;;;;2.57;2.37;;;0.90;96.30;;;;;;5016116;28;20188;-72
2021/03/15 00:07:08;;;;;;;4.90;2.83;;;0.80;96.30;;;;;;5016491;28;20240;-72
2021/03/15 00:09:33;;;;;;;5.77;3.00;;;0.70;96.30;;;;;;5015578;28;20177;-72
2021/03/15 00:11:59;;;;;;;3.70;2.87;;;0.70;96.30;;;;;;5015629;28;20192;-72
2021/03/15 00:14:25;;;;;;;3.63;2.63;;;0.70;96.30;;;;;;5015003;28;20201;-73
2021/03/15 00:16:52;;;;;;;3.57;3.17;;;0.80;96.30;;;;;;5015595;28;20181;-72
2021/03/15 00:19:18;;;;;;;2.87;2.57;;;1.00;96.30;;;;;;5015570;28;20180;-72
2021/03/15 00:21:44;;;;;;;2.90;2.60;;;1.10;96.30;;;;;;5015547;28;20419;-73
2021/03/15 00:24:10;;;;;;;3.40;2.43;;;1.10;96.30;;;;;;5013441;28;20226;-74
2021/03/15 00:26:45;;;;;;;4.10;3.57;;;1.20;96.30;;;;;;5014954;28;20228;-73
2021/03/15 00:29:13;;;;;;;3.63;3.03;;;1.20;96.30;;;;;;5012713;28;20424;-73
2021/03/15 00:31:39;;;;;;;3.83;3.07;;;1.20;96.30;;;;;;5013770;28;20424;-72
2021/03/15 00:34:05;;;;;;;4.40;3.23;;;1.20;96.30;;;;;;4978801;23;20521;-73
2021/03/15 00:36:30;;;;;;;7.97;3.83;;;1.20;96.30;;;;;;4957987;28;20273;-74
2021/03/15 00:38:55;;;;;;;4.13;3.27;;;1.10;96.30;;;;;;4953776;28;20534;-73
2021/03/15 00:41:21;;;;;;;6.03;3.00;;;1.10;96.30;;;;;;4955286;28;20179;-73
2021/03/15 00:43:46;;;;;;;3.53;2.27;;;1.10;96.30;;;;;;4955321;28;20198;-74
2021/03/15 00:46:12;;;;;;;4.20;3.30;;;1.10;96.30;;;;;;4955205;28;20213;-76
2021/03/15 00:48:37;;;;;;;4.53;3.60;;;1.10;96.30;;;;;;4954774;28;20583;-73
2021/03/15 00:51:03;;;;;;;3.97;3.40;;;1.10;96.30;;;;;;4955191;28;20198;-73
2021/03/15 00:53:29;;;;;;;7.43;4.50;;;1.10;96.30;;;;;;4955074;28;20195;-73
2021/03/15 00:55:54;;;;;;;4.97;3.30;;;1.10;96.30;;;;;;4955093;28;20233;-76
2021/03/15 00:58:20;;;;;;;4.27;3.20;;;1.10;96.30;;;;;;4954494;28;20258;-73
2021/03/15 05:02:25;;;;;;;9.73;4.70;;;1.20;96.30;;;;;;5069082;23;20504;-77
2021/03/15 05:04:51;;;;;;;7.03;4.60;;;1.10;96.30;;;;;;4993212;28;20441;-75
2021/03/15 05:07:18;;;;;;;9.30;5.20;;;1.00;96.30;;;;;;4992644;28;20456;-75
2021/03/15 05:09:47;;;;;;;5.43;4.13;;;1.00;96.30;;;;;;4992746;28;20416;-74
2021/03/15 05:12:13;;;;;;;7.70;4.47;;;0.90;96.30;;;;;;4995661;28;20467;-76
2021/03/15 05:14:40;;;;;;;8.13;4.83;;;0.90;96.30;;;;;;4993851;28;20417;-74
2021/03/15 05:17:05;;;;;;;5.20;3.60;;;0.80;96.30;;;;;;4992609;28;20416;-73
2021/03/15 05:19:32;;;;;;;8.60;6.13;;;0.80;96.30;;;;;;4993384;28;20420;-76
2021/03/15 05:21:59;;;;;;;31.23;15.40;;;0.80;96.30;;;;;;4992078;28;20225;-74
2021/03/15 05:24:24;;;;;;;21.23;9.13;;;0.80;96.30;;;;;;4993176;28;20416;-74
2021/03/15 05:26:50;;;;;;;6.80;4.80;;;0.80;96.30;;;;;;4993164;28;20456;-73
2021/03/15 05:29:18;;;;;;;6.33;4.87;;;0.90;96.30;;;;;;4992795;28;20231;-74
2021/03/15 05:31:47;;;;;;;9.60;4.63;;;0.80;96.30;;;;;;4992485;28;20204;-74
2021/03/15 05:34:14;;;;;;;8.67;5.43;;;0.90;96.30;;;;;;4991808;28;20428;-73
2021/03/15 05:36:42;;;;;;;8.00;4.90;;;1.00;96.30;;;;;;4992978;28;20412;-73
2021/03/15 05:39:07;;;;;;;6.37;5.27;;;1.00;96.30;;;;;;4992632;28;20413;-73
2021/03/15 05:42:34;;;;;;;5.30;4.80;;;1.00;96.30;;;;;;4991750;28;20460;-73
2021/03/15 05:45:11;;;;;;;9.60;4.60;;;1.00;96.30;;;;;;4980943;28;20200;-75
2021/03/15 05:47:56;;;;;;;8.00;4.90;;;1.00;96.30;;;;;;4992434;28;20467;-73
2021/03/15 05:50:37;;;;;;;12.60;4.50;;;1.00;96.30;;;;;;4993062;28;20393;-78
2021/03/15 05:53:30;;;;;;;6.73;5.00;;;0.90;96.30;;;;;;4989127;28;20428;-77
2021/03/15 05:56:00;;;;;;;5.73;3.87;;;0.90;96.30;;;;;;4972837;28;20418;-75
2021/03/15 05:58:51;;;;;;;7.63;5.00;;;0.90;96.30;;;;;;4972269;28;20826;-75
2021/03/15 06:01:22;;;;;;;6.10;4.00;;;1.00;96.30;;;;;;4973003;28;20445;-76
2021/03/15 06:04:32;;;;;;;9.23;4.23;;;1.10;96.30;;;;;;4973053;28;20421;-77
2021/03/15 06:07:01;;;;;;;6.37;4.67;;;1.10;96.30;;;;;;4962196;28;21027;-75
2021/03/15 06:09:30;;;;;;;5.80;5.20;;;1.20;96.30;;;;;;4972750;28;20425;-75
2021/03/15 06:12:04;;;;;;;6.80;5.40;;;1.20;96.30;;;;;;4973042;28;20512;-76
2021/03/15 06:14:30;;;;;;;9.53;4.93;;;1.30;96.30;;;;;;4972631;28;20500;-75
2021/03/15 06:16:57;;;;;;;9.90;5.33;;;1.40;96.30;;;;;;5011159;28;20469;-76
2021/03/15 06:19:24;;;;;;;5.37;4.87;;;1.50;96.30;;;;;;4996329;28;20452;-78
2021/03/15 06:21:55;;;;;;;5.43;3.97;;;1.60;96.30;;;;;;4992275;28;20433;-76
2021/03/15 06:24:21;;;;;;;5.90;3.90;;;1.60;96.30;;;;;;4991160;28;20439;-76
2021/03/15 06:26:47;;;;;;;6.30;4.47;;;1.70;96.30;;;;;;4992140;28;20452;-76
2021/03/15 06:29:13;;;;;;;8.90;4.93;;;1.90;96.30;;;;;;4990628;28;20423;-76
2021/03/15 06:31:44;;;;;;;4.50;4.10;;;2.10;96.30;;;;;;4990972;28;20429;-76
2021/03/15 06:34:14;;;;;;;9.03;3.97;;;2.40;96.30;;;;;;4992660;28;20542;-76
2021/03/15 06:36:40;;;;;;;5.60;3.80;;;2.40;96.30;;;;;;4993525;28;20475;-77
2021/03/15 06:39:09;;;;;;;10.37;4.47;;;2.30;96.30;;;;;;4995771;28;20487;-77
2021/03/15 06:41:35;;;;;;;7.40;3.67;;;2.20;96.30;;;;;;4994662;28;20201;-76
2021/03/15 06:44:01;;;;;;;8.93;4.67;;;2.00;96.30;;;;;;4994687;28;20470;-76
2021/03/15 06:46:26;;;;;;;13.73;4.47;;;1.90;96.30;;;;;;4995793;28;20413;-77
2021/03/15 06:48:52;;;;;;;10.07;4.87;;;1.90;96.30;;;;;;4995461;28;20178;-77
2021/03/15 06:51:17;;;;;;;11.10;4.50;;;2.00;96.30;;;;;;4995798;28;20669;-76
2021/03/15 06:53:43;;;;;;;5.70;3.73;;;2.00;96.30;;;;;;4994565;28;20189;-76
2021/03/15 06:56:14;;;;;;;6.70;4.40;;;1.90;96.30;;;;;;4995816;28;20173;-76
2021/03/15 06:58:53;;;;;;;6.10;4.13;;;2.00;96.30;;;;;;4993909;28;20404;-76
2021/03/15 07:01:26;;;;;;;7.00;4.80;;;2.10;96.30;;;;;;4995590;28;20474;-76
2021/03/15 07:04:07;;;;;;;5.07;4.00;;;2.20;96.30;;;;;;4995492;28;20472;-76
2021/03/15 07:06:38;;;;;;;6.43;4.47;;;2.10;96.30;;;;;;4994161;28;20405;-76
2021/03/15 07:09:16;;;;;;;10.20;4.83;;;2.20;96.30;;;;;;4995146;28;20416;-76
2021/03/15 07:11:43;;;;;;;6.97;4.80;;;2.20;96.30;;;;;;4995542;28;20432;-76
2021/03/15 07:14:26;;;;;;;8.17;4.37;;;2.30;96.30;;;;;;4995610;28;20827;-76
2021/03/15 07:17:01;;;;;;;4.00;3.00;;;2.30;96.30;;;;;;4995353;28;20428;-80
2021/03/15 07:19:27;;;;;;;10.53;4.97;;;2.20;96.30;;;;;;4995217;28;20416;-77
2021/03/15 07:21:53;;;;;;;7.63;4.47;;;2.10;96.30;;;;;;4995356;28;20647;-78
2021/03/15 07:24:19;;;;;;;6.20;3.73;;;2.10;96.30;;;;;;4994100;28;20554;-77
2021/03/15 07:26:45;;;;;;;5.70;3.80;;;2.10;96.30;;;;;;4995126;28;20197;-76
2021/03/15 07:29:16;;;;;;;7.50;5.57;;;2.30;96.30;;;;;;4994772;28;20178;-77
2021/03/15 07:31:49;;;;;;;6.60;4.33;;;2.40;96.30;;;;;;4995011;28;20443;-77
2021/03/15 07:34:17;;;;;;;5.53;3.23;;;2.70;96.30;;;;;;4995116;28;20413;-76
2021/03/15 07:36:49;;;;;;;10.93;4.27;;;3.00;96.30;;;;;;4993452;28;20436;-76
2021/03/15 07:39:15;;;;;;;5.00;3.90;;;3.20;96.30;;;;;;4994628;28;20869;-76
2021/03/15 07:41:42;;;;;;;7.70;3.97;;;3.40;96.30;;;;;;4994036;28;20448;-77
2021/03/15 07:44:20;;;;;;;6.17;4.97;;;3.50;96.30;;;;;;4994307;28;20185;-77
2021/03/15 07:46:46;;;;;;;4.40;3.20;;;3.30;96.30;;;;;;4994713;28;20941;-76
2021/03/15 07:49:24;;;;;;;4.70;3.30;;;3.30;96.30;;;;;;4993147;28;20420;-77
2021/03/15 07:51:58;;;;;;;4.70;3.00;;;3.20;96.30;;;;;;4993428;28;20459;-76
2021/03/15 07:54:34;;;;;;;3.70;2.73;;;3.10;96.30;;;;;;4994765;28;20409;-76
2021/03/15 07:57:16;;;;;;;4.40;3.10;;;3.00;96.30;;;;;;4994296;28;20531;-76
2021/03/15 07:59:44;;;;;;;4.83;3.03;;;3.10;96.30;;;;;;4993358;28;20424;-76
2021/03/15 08:02:21;;;;;;;5.87;2.57;;;3.30;96.30;;;;;;4994547;28;20452;-76
2021/03/15 08:04:48;;;;;;;6.30;3.00;;;3.30;96.30;;;;;;4994493;28;20531;-76
2021/03/15 08:07:15;;;;;;;4.20;2.30;;;3.50;96.30;;;;;;4994043;28;20455;-76
2021/03/15 08:09:42;;;;;;;3.57;2.80;;;3.40;96.30;;;;;;4994461;28;20413;-77
2021/03/15 08:12:09;;;;;;;3.03;2.23;;;3.60;96.30;;;;;;4994439;28;20421;-76
2021/03/15 08:14:37;;;;;;;3.27;2.40;;;3.70;96.30;;;;;;4993092;28;20417;-79
2021/03/15 08:17:04;;;;;;;3.70;2.10;;;3.80;96.30;;;;;;4992555;28;20937;-77
2021/03/15 08:19:36;;;;;;;11.20;2.40;;;4.00;96.30;;;;;;4994196;28;20425;-78
2021/03/15 08:22:04;;;;;;;4.13;2.50;;;3.90;96.30;;;;;;4994279;28;20433;-77
2021/03/15 08:24:34;;;;;;;6.13;2.07;;;3.90;96.30;;;;;;4994171;28;20421;-78
2021/03/15 08:27:02;;;;;;;5.17;1.90;;;3.90;96.30;;;;;;4993757;28;20453;-77
2021/03/15 08:29:28;;;;;;;1.70;1.60;;;3.70;96.30;;;;;;4994101;28;20413;-78
2021/03/15 08:31:55;;;;;;;8.53;2.63;;;3.90;96.30;;;;;;4993959;28;20429;-77
2021/03/15 08:34:22;;;;;;;4.03;2.03;;;4.20;96.30;;;;;;4993943;28;20405;-77
2021/03/15 08:36:48;;;;;;;2.67;1.90;;;4.20;96.30;;;;;;4993880;28;20766;-77
2021/03/15 08:39:32;;;;;;;2.30;1.80;;;4.20;96.30;;;;;;4993466;28;20428;-78
2021/03/15 08:42:06;;;;;;;3.33;1.70;;;4.40;96.30;;;;;;4993982;28;20252;-77
2021/03/15 08:44:43;;;;;;;5.97;1.87;;;4.80;96.30;;;;;;4992220;28;20415;-81
2021/03/15 08:47:10;;;;;;;4.47;1.40;;;5.00;96.30;;;;;;4993263;28;20448;-77
2021/03/15 08:49:37;;;;;;;4.33;1.30;;;5.40;96.30;;;;;;4993775;28;20970;-77
2021/03/15 08:52:02;;;;;;;4.97;2.47;;;5.40;96.30;;;;;;4993557;28;20516;-77
2021/03/15 08:54:39;;;;;;;1.57;1.37;;;5.50;96.30;;;;;;4993670;28;20444;-78
2021/03/15 08:57:06;;;;;;;3.03;1.60;;;5.20;96.30;;;;;;4993275;28;20224;-78
2021/03/15 08:59:33;;;;;;;3.00;1.60;;;4.90;96.30;;;;;;4993206;28;20424;-77
2021/03/15 09:02:03;;;;;;;3.57;1.87;;;4.90;96.30;;;;;;4992112;28;20521;-78
2021/03/15 09:04:33;;;;;;;4.50;1.53;;;4.80;96.30;;;;;;4993569;28;20440;-77
2021/03/15 09:07:01;;;;;;;3.00;1.50;;;4.90;96.30;;;;;;4992858;28;20457;-78
2021/03/15 09:09:31;;;;;;;4.50;1.57;;;4.80;96.30;;;;;;4992062;28;20460;-79
2021/03/15 09:11:58;;;;;;;7.87;2.40;;;4.90;96.30;;;;;;4993192;28;20464;-77
2021/03/15 09:14:33;;;;;;;6.20;2.13;;;4.80;96.30;;;;;;4993521;28;20437;-76
2021/03/15 09:17:14;;;;;;;9.90;2.10;;;4.70;96.30;;;;;;4992662;28;20412;-78
2021/03/15 09:19:39;;;;;;;3.10;1.53;;;4.50;96.30;;;;;;4993126;28;20412;-77
2021/03/15 09:22:05;;;;;;;1.80;1.50;;;4.80;96.30;;;;;;4992726;28;20766;-77
2021/03/15 09:24:34;;;;;;;2.17;1.70;;;4.90;96.30;;;;;;4993186;28;20173;-78
2021/03/15 09:27:04;;;;;;;7.63;2.13;;;4.70;96.30;;;;;;4991129;28;20453;-77
2021/03/15 09:29:30;;;;;;;4.70;2.50;;;4.70;96.30;;;;;;4993061;28;20885;-77
2021/03/15 09:32:03;;;;;;;5.93;2.50;;;5.20;96.30;;;;;;4992761;28;20433;-77
2021/03/15 09:34:29;;;;;;;6.63;2.10;;;5.50;96.30;;;;;;4993193;28;20839;-77
2021/03/15 09:36:59;;;;;;;2.83;2.23;;;5.70;96.30;;;;;;4992500;28;20496;-77
2021/03/15 09:39:27;;;;;;;4.73;2.20;;;6.10;96.30;;;;;;4991712;28;20653;-77
2021/03/15 09:41:54;;;;;;;3.87;2.10;;;6.10;96.30;;;;;;4992678;28;20461;-77
2021/03/15 09:44:42;;;;;;;3.80;2.27;;;5.80;96.30;;;;;;4991612;28;20432;-77
2021/03/15 09:47:08;;;;;;;3.40;2.00;;;5.70;96.30;;;;;;4990951;28;20457;-77
2021/03/15 09:49:44;;;;;;;3.57;2.00;;;5.60;96.30;;;;;;4991689;28;20840;-76
2021/03/15 09:52:24;;;;;;;3.77;2.17;;;5.50;96.30;;;;;;4992798;28;20280;-77
2021/03/15 09:54:51;;;;;;;4.33;1.80;;;5.60;96.30;;;;;;4991555;28;20854;-77
2021/03/15 09:57:18;;;;;;;3.87;2.73;;;5.50;96.30;;;;;;4992098;28;20420;-76
2021/03/15 09:59:45;;;;;;;3.47;2.10;;;5.60;96.30;;;;;;4992510;28;20409;-76
2021/03/15 10:02:14;;;;;;;4.90;2.47;;;5.60;96.30;;;;;;4992499;28;20503;-78
2021/03/15 10:04:41;;;;;;;3.33;1.80;;;5.70;96.30;;;;;;4991244;28;20450;-76
2021/03/15 10:07:09;;;;;;;4.10;1.80;;;5.70;96.30;;;;;;4991260;28;20448;-78
2021/03/15 10:09:39;;;;;;;3.80;1.90;;;5.80;96.30;;;;;;4992549;28;20499;-76
2021/03/15 10:12:18;;;;;;;3.03;1.80;;;5.90;96.30;;;;;;4994629;28;20428;-76
2021/03/15 10:14:44;;;;;;;2.70;1.70;;;5.90;96.30;;;;;;4995140;28;20411;-77
2021/03/15 10:17:09;;;;;;;3.80;1.80;;;5.80;96.30;;;;;;4995949;28;20790;-77
2021/03/15 10:19:35;;;;;;;1.43;1.33;;;5.80;96.30;;;;;;4996467;28;20188;-78
2021/03/15 10:22:10;;;;;;;2.50;1.60;;;5.90;96.30;;;;;;4996147;28;20202;-76
2021/03/15 10:24:38;;;;;;;2.40;1.70;;;5.80;96.30;;;;;;4996456;28;20255;-76
2021/03/15 10:27:06;;;;;;;3.50;2.13;;;5.90;96.30;;;;;;4995873;28;20540;-77
2021/03/15 10:29:33;;;;;;;3.10;1.50;;;5.90;96.30;;;;;;4996297;28;20416;-76
2021/03/15 10:32:03;;;;;;;3.97;2.43;;;6.00;96.30;;;;;;4996106;28;20428;-77
2021/03/15 10:34:29;;;;;;;3.03;1.73;;;6.20;96.30;;;;;;4996292;28;20416;-76
2021/03/15 10:36:57;;;;;;;2.20;2.00;;;5.90;96.30;;;;;;4995697;28;20451;-78
2021/03/15 10:39:24;;;;;;;2.13;1.40;;;6.10;96.30;;;;;;4994965;28;20178;-76
2021/03/15 10:41:51;;;;;;;6.77;2.10;;;6.20;96.30;;;;;;4995953;28;20428;-77
2021/03/15 10:44:22;;;;;;;2.50;1.77;;;6.10;96.30;;;;;;4995842;28;20417;-76
2021/03/15 10:46:53;;;;;;;1.80;1.63;;;6.10;96.30;;;;;;4994598;28;20456;-76
2021/03/15 10:49:24;;;;;;;1.93;1.37;;;6.00;96.30;;;;;;4995732;28;20392;-76
2021/03/15 10:51:52;;;;;;;4.07;2.00;;;5.90;96.30;;;;;;4994493;28;20437;-78
2021/03/15 10:54:31;;;;;;;4.13;1.90;;;5.90;96.30;;;;;;4995998;28;20470;-76
2021/03/15 10:57:20;;;;;;;4.33;2.37;;;6.00;96.30;;;;;;4994064;28;20416;-77
2021/03/15 10:59:48;;;;;;;3.10;1.73;;;6.10;96.30;;;;;;4995915;28;20400;-77
2021/03/15 11:02:21;;;;;;;2.70;1.90;;;6.00;96.30;;;;;;4995572;28;20960;-77
2021/03/15 11:04:52;;;;;;;2.77;1.87;;;5.60;96.30;;;;;;4995631;28;20428;-76
2021/03/15 11:07:35;;;;;;;2.63;1.40;;;5.70;96.30;;;;;;4995099;28;20467;-76
2021/03/15 11:10:13;;;;;;;2.80;2.23;;;5.90;96.30;;;;;;4995550;28;20408;-77
2021/03/15 11:12:40;;;;;;;1.90;1.80;;;5.70;96.30;;;;;;4995569;28;20405;-77
2021/03/15 11:15:17;;;;;;;2.87;1.60;;;5.70;96.30;;;;;;4996047;28;20405;-77
2021/03/15 11:18:05;;;;;;;2.50;2.13;;;5.50;96.30;;;;;;4993692;28;20415;-77
2021/03/15 11:20:34;;;;;;;3.20;1.77;;;5.10;96.30;;;;;;4995236;28;20433;-77
2021/03/15 11:23:00;;;;;;;2.97;1.80;;;4.90;96.30;;;;;;4994890;28;20904;-77
2021/03/15 11:25:29;;;;;;;1.73;1.50;;;4.80;96.30;;;;;;4995230;28;20826;-77
2021/03/15 11:27:55;;;;;;;1.70;1.20;;;4.70;96.30;;;;;;4995257;28;20460;-77
2021/03/15 11:30:26;;;;;;;1.70;1.20;;;4.30;96.30;;;;;;4994995;28;20959;-77
2021/03/15 11:33:00;;;;;;;2.07;1.57;;;4.10;96.30;;;;;;4995161;28;20907;-78
2021/03/15 11:35:26;;;;;;;2.70;1.47;;;3.90;96.30;;;;;;4995131;28;20836;-78
2021/03/15 11:37:52;;;;;;;1.37;1.27;;;3.80;96.30;;;;;;4994767;28;20419;-78
2021/03/15 11:40:41;;;;;;;4.43;1.80;;;3.80;96.30;;;;;;4994905;28;20500;-78
2021/03/15 11:43:09;;;;;;;2.00;1.57;;;3.90;96.30;;;;;;4994981;28;20158;-79
2021/03/15 11:45:36;;;;;;;3.00;1.80;;;3.80;96.30;;;;;;4995050;28;20467;-79
2021/03/15 11:48:02;;;;;;;2.73;1.90;;;3.80;96.30;;;;;;4994327;28;20462;-80
2021/03/15 11:50:29;;;;;;;2.77;1.80;;;3.70;96.30;;;;;;4995084;28;20416;-79
2021/03/15 11:52:55;;;;;;;2.63;1.63;;;3.60;96.30;;;;;;4994728;28;20751;-78
2021/03/15 11:55:21;;;;;;;1.87;1.60;;;3.60;96.30;;;;;;4994783;28;20409;-76
2021/03/15 11:57:47;;;;;;;3.03;2.40;;;3.80;96.30;;;;;;4992785;28;20419;-77
2021/03/15 12:00:15;;;;;;;1.83;1.70;;;3.80;96.30;;;;;;4994787;28;20444;-78
2021/03/15 12:02:41;;;;;;;3.73;2.20;;;4.00;96.30;;;;;;4994702;28;20419;-76
2021/03/15 12:05:09;;;;;;;2.23;1.80;;;4.00;96.30;;;;;;4994582;28;20412;-78
2021/03/15 12:07:35;;;;;;;2.23;2.03;;;3.90;96.30;;;;;;4993939;28;20289;-79
2021/03/15 12:10:00;;;;;;;2.60;2.40;;;3.80;96.30;;;;;;4994040;28;20492;-77
2021/03/15 12:12:26;;;;;;;3.63;1.87;;;3.60;96.30;;;;;;4994477;28;20596;-76
2021/03/15 12:14:52;;;;;;;2.70;1.53;;;3.50;96.30;;;;;;4994120;28;20174;-76
2021/03/15 12:17:17;;;;;;;2.87;2.37;;;3.40;96.30;;;;;;4993810;28;20641;-78
2021/03/15 12:19:43;;;;;;;3.37;2.53;;;3.60;96.30;;;;;;4994317;28;20542;-77
2021/03/15 12:22:09;;;;;;;3.07;2.77;;;3.70;96.30;;;;;;4994122;28;20220;-80
2021/03/15 12:24:34;;;;;;;2.60;2.30;;;3.70;96.30;;;;;;4992912;28;20548;-77
2021/03/15 12:27:00;;;;;;;4.90;2.53;;;3.90;96.30;;;;;;4993392;28;20201;-78
2021/03/15 12:29:26;;;;;;;2.30;1.93;;;4.10;96.30;;;;;;4994079;28;20180;-79
2021/03/15 12:31:51;;;;;;;2.20;2.00;;;4.10;96.30;;;;;;4992704;28;20660;-78
2021/03/15 12:34:17;;;;;;;2.50;2.27;;;4.10;96.30;;;;;;4992107;28;20822;-78
2021/03/15 12:36:43;;;;;;;2.50;2.07;;;4.10;96.30;;;;;;4993907;28;20174;-78
2021/03/15 12:39:08;;;;;;;3.10;2.63;;;4.30;96.30;;;;;;4993452;28;20927;-78
2021/03/15 12:41:34;;;;;;;2.20;1.93;;;4.30;96.30;;;;;;4992625;28;20669;-78
2021/03/15 12:43:59;;;;;;;2.07;1.87;;;4.30;96.30;;;;;;4993788;28;20196;-78
2021/03/15 12:46:25;;;;;;;2.00;1.80;;;4.20;96.30;;;;;;4993553;28;20638;-79
2021/03/15 12:48:51;;;;;;;1.97;1.77;;;4.30;96.30;;;;;;4993108;28;20205;-79
2021/03/15 12:51:16;;;;;;;2.47;2.27;;;4.60;96.30;;;;;;4993672;28;20440;-78
2021/03/15 12:53:42;;;;;;;4.57;1.60;;;5.20;96.30;;;;;;4993706;28;20176;-80
2021/03/15 12:56:08;;;;;;;7.23;2.17;;;5.10;96.30;;;;;;4993605;28;20169;-78
2021/03/15 12:58:33;;;;;;;2.53;2.00;;;5.20;96.30;;;;;;4993001;28;20196;-78
2021/03/15 13:00:59;;;;;;;1.87;1.67;;;5.30;96.30;;;;;;4993314;28;20668;-78
2021/03/15 13:03:25;;;;;;;1.70;1.60;;;5.40;96.30;;;;;;4993695;28;20592;-78
2021/03/15 13:05:51;;;;;;;2.23;1.57;;;5.30;96.30;;;;;;4993496;28;20455;-79
2021/03/15 13:08:16;;;;;;;1.60;1.50;;;5.10;96.30;;;;;;4991573;28;20211;-78
2021/03/15 13:10:42;;;;;;;1.80;1.40;;;4.90;96.30;;;;;;4993448;28;20269;-78
2021/03/15 13:13:08;;;;;;;8.23;1.70;;;4.50;96.30;;;;;;4993218;28;20174;-78
2021/03/15 13:15:34;;;;;;;1.63;1.53;;;4.30;96.30;;;;;;4993243;28;20413;-77
2021/03/15 13:18:00;;;;;;;1.50;1.30;;;4.00;96.30;;;;;;4992251;28;20182;-79
2021/03/15 13:20:26;;;;;;;1.50;1.40;;;3.90;96.30;;;;;;4991970;28;20181;-77
2021/03/15 13:22:52;;;;;;;1.40;1.30;;;3.80;96.30;;;;;;4993144;28;20413;-78
2021/03/15 13:25:17;;;;;;;1.50;1.40;;;3.90;96.30;;;;;;4993003;28;20174;-79
2021/03/15 13:27:43;;;;;;;1.47;1.37;;;3.90;96.30;;;;;;4991294;28;20205;-78
2021/03/15 13:30:10;;;;;;;1.47;1.37;;;4.10;96.30;;;;;;4993045;28;20668;-78
2021/03/15 13:32:35;;;;;;;2.30;1.63;;;4.30;96.30;;;;;;4993062;28;20194;-80
2021/03/15 13:35:01;;;;;;;1.57;1.47;;;4.40;96.30;;;;;;4992985;28;20976;-78
2021/03/15 13:37:27;;;;;;;1.57;1.47;;;4.30;96.30;;;;;;4992417;28;20176;-78
2021/03/15 13:39:53;;;;;;;1.40;1.30;;;4.20;96.30;;;;;;4993048;28;20169;-78
2021/03/15 13:42:19;;;;;;;2.40;1.20;;;4.00;96.30;;;;;;4991509;28;20532;-78
2021/03/15 13:44:45;;;;;;;1.20;1.10;;;3.70;96.30;;;;;;4992869;28;20201;-78
2021/03/15 13:47:13;;;;;;;1.70;1.27;;;3.60;96.30;;;;;;4991369;28;21593;-79
2021/03/15 13:49:40;;;;;;;1.83;1.37;;;3.70;96.30;;;;;;4991474;28;20176;-78
2021/03/15 13:52:05;;;;;;;1.20;1.10;;;3.70;96.30;;;;;;4993096;28;20953;-78
2021/03/15 13:54:31;;;;;;;1.57;1.47;;;3.70;96.30;;;;;;5004757;28;20439;-79
2021/03/15 13:56:57;;;;;;;1.50;1.40;;;3.70;96.30;;;;;;5010461;28;20177;-78
2021/03/15 13:59:22;;;;;;;1.67;1.57;;;3.70;96.30;;;;;;5011945;28;20223;-80
2021/03/15 14:01:48;;;;;;;1.50;1.40;;;3.60;96.30;;;;;;5011856;28;20651;-78
2021/03/15 14:04:13;;;;;;;1.40;1.30;;;3.70;96.30;;;;;;5010632;28;20735;-78
2021/03/15 14:06:39;;;;;;;2.73;1.40;;;3.70;96.30;;;;;;5011673;28;20176;-78
2021/03/15 14:09:05;;;;;;;1.87;1.77;;;3.80;96.30;;;;;;5011411;28;20637;-78
2021/03/15 14:11:31;;;;;;;1.60;1.50;;;3.90;96.30;;;;;;5011954;28;20228;-78
2021/03/15 14:13:56;;;;;;;1.50;1.40;;;4.00;96.30;;;;;;5011793;28;20179;-82
2021/03/15 14:16:22;;;;;;;3.00;1.60;;;4.00;96.30;;;;;;5011865;28;20180;-78
2021/03/15 14:18:48;;;;;;;3.10;1.60;;;4.00;96.30;;;;;;5011344;28;20176;-78
2021/03/15 14:21:13;;;;;;;2.10;1.30;;;4.10;96.30;;;;;;5010460;28;20232;-79
2021/03/15 14:23:39;;;;;;;1.50;1.40;;;4.10;96.30;;;;;;5011724;28;20234;-78
2021/03/15 14:26:04;;;;;;;2.00;1.50;;;4.10;96.30;;;;;;5011541;28;20278;-78
2021/03/15 14:28:30;;;;;;;2.10;1.40;;;4.20;96.30;;;;;;5011457;28;20570;-79
2021/03/15 14:30:55;;;;;;;1.77;1.20;;;4.10;96.30;;;;;;5005808;28;20198;-78
2021/03/15 14:33:21;;;;;;;1.30;1.10;;;4.00;96.30;;;;;;5007236;28;20289;-77
2021/03/15 14:35:47;;;;;;;2.80;1.43;;;4.00;96.30;;;;;;5011461;28;20180;-78
2021/03/15 14:38:13;;;;;;;2.03;1.60;;;4.00;96.30;;;;;;5011273;28;20422;-78
2021/03/15 14:40:38;;;;;;;1.30;1.10;;;3.90;96.30;;;;;;5011274;28;20523;-79
2021/03/15 14:43:04;;;;;;;1.10;1.00;;;3.80;96.30;;;;;;5011743;28;20188;-78
2021/03/15 14:45:30;;;;;;;2.07;1.27;;;3.80;96.30;;;;;;5011923;28;20247;-77
2021/03/15 14:47:55;;;;;;;1.30;1.20;;;3.70;96.30;;;;;;5004562;28;20203;-80
2021/03/15 14:50:21;;;;;;;1.33;1.20;;;3.90;96.30;;;;;;4992056;28;20260;-78
2021/03/15 14:52:46;;;;;;;1.30;1.13;;;4.00;96.30;;;;;;4992310;28;20257;-78
2021/03/15 14:55:12;;;;;;;1.30;0.97;;;4.00;96.30;;;;;;4991901;28;20277;-77
2021/03/15 14:57:38;;;;;;;1.43;1.33;;;4.00;96.30;;;;;;4989357;28;20193;-77
2021/03/15 15:00:06;;;;;;;3.50;1.53;;;4.40;96.30;;;;;;4995161;28;20420;-78
2021/03/15 15:02:32;;;;;;;2.00;1.23;;;4.70;96.30;;;;;;4996031;28;20224;-78
2021/03/15 15:04:58;;;;;;;2.07;1.00;;;5.00;96.30;;;;;;4995536;28;20424;-78
2021/03/15 15:07:24;;;;;;;8.43;1.30;;;5.10;96.30;;;;;;4995349;28;20461;-78
2021/03/15 15:09:49;;;;;;;2.60;1.83;;;5.40;96.30;;;;;;4995451;28;20181;-78
2021/03/15 15:12:15;;;;;;;1.23;1.00;;;5.20;96.30;;;;;;4995645;28;20665;-80
2021/03/15 15:14:41;;;;;;;1.63;1.17;;;5.10;96.30;;;;;;4995341;28;20170;-79
2021/03/15 15:17:08;;;;;;;2.80;1.00;;;4.90;96.30;;;;;;4987272;28;20462;-78
2021/03/15 15:19:34;;;;;;;2.70;1.10;;;4.90;96.30;;;;;;5009389;28;20205;-78
2021/03/15 15:21:59;;;;;;;2.10;1.20;;;4.90;96.30;;;;;;4995669;28;20507;-78
2021/03/15 15:24:25;;;;;;;3.60;1.33;;;4.80;96.30;;;;;;4994607;28;20649;-78
2021/03/15 15:26:50;;;;;;;2.93;1.40;;;4.70;96.30;;;;;;4997214;28;20192;-78
2021/03/15 15:29:16;;;;;;;2.10;1.20;;;4.70;96.30;;;;;;4996492;28;20202;-78
2021/03/15 15:31:42;;;;;;;5.00;1.80;;;4.70;96.30;;;;;;4994354;28;20208;-78
2021/03/15 15:34:07;;;;;;;1.77;1.00;;;4.80;96.30;;;;;;4995143;28;20196;-78
2021/03/15 15:36:32;;;;;;;2.67;1.20;;;4.90;96.30;;;;;;4994818;28;20184;-78
2021/03/15 15:38:58;;;;;;;2.60;1.20;;;5.20;96.30;;;;;;4994825;28;20188;-79
2021/03/15 15:41:24;;;;;;;2.17;1.30;;;5.10;96.30;;;;;;4995165;28;20224;-78
2021/03/15 15:43:49;;;;;;;1.73;1.20;;;4.90;96.30;;;;;;4995055;28;20708;-78
2021/03/15 15:46:15;;;;;;;1.60;1.10;;;4.70;96.30;;;;;;4994782;28;20188;-78
2021/03/15 15:48:40;;;;;;;2.23;1.13;;;4.70;96.30;;;;;;4994471;28;20291;-78
2021/03/15 15:51:08;;;;;;;2.03;1.33;;;4.70;96.30;;;;;;4994963;28;20606;-78
2021/03/15 15:53:34;;;;;;;2.80;1.17;;;4.60;96.30;;;;;;4995367;28;20204;-78
2021/03/15 15:56:00;;;;;;;5.47;1.50;;;4.50;96.30;;;;;;4994164;28;20405;-78
2021/03/15 15:58:25;;;;;;;5.20;1.17;;;4.40;96.30;;;;;;4993142;28;20429;-79
2021/03/15 16:00:51;;;;;;;2.03;1.17;;;4.30;96.30;;;;;;4997587;28;20220;-80
2021/03/15 16:03:16;;;;;;;1.87;1.20;;;4.20;96.30;;;;;;5003902;28;20177;-81
2021/03/15 16:05:42;;;;;;;3.87;1.60;;;4.30;96.30;;;;;;5005197;28;20174;-78
2021/03/15 16:08:07;;;;;;;3.30;1.80;;;4.20;96.30;;;;;;4995528;28;20205;-78
2021/03/15 16:10:33;;;;;;;1.73;1.00;;;4.20;96.30;;;;;;4996059;28;20590;-78
2021/03/15 16:12:58;;;;;;;3.60;1.50;;;4.20;96.30;;;;;;5001434;28;20180;-78
2021/03/15 16:15:24;;;;;;;2.97;1.70;;;4.20;96.30;;;;;;4999951;28;20660;-79
2021/03/15 16:17:49;;;;;;;3.77;2.07;;;4.00;96.30;;;;;;5000454;28;20180;-79
2021/03/15 16:20:15;;;;;;;5.37;1.30;;;4.00;96.30;;;;;;5005216;28;20671;-80
2021/03/15 16:22:41;;;;;;;4.87;2.17;;;4.00;96.30;;;;;;5003419;28;20181;-77
2021/03/15 16:25:07;;;;;;;4.77;2.00;;;3.90;96.30;;;;;;4994907;28;20174;-78
2021/03/15 16:27:39;;;;;;;6.17;1.80;;;3.90;96.30;;;;;;5007766;28;20201;-78
2021/03/15 16:30:09;;;;;;;1.90;1.50;;;3.90;96.30;;;;;;4994236;28;20758;-79
2021/03/15 16:32:43;;;;;;;3.00;1.90;;;3.80;96.30;;;;;;4993841;28;20524;-77
2021/03/15 16:35:09;;;;;;;6.77;2.50;;;3.80;96.30;;;;;;4974355;28;20402;-77
2021/03/15 16:37:35;;;;;;;3.00;1.90;;;3.80;96.30;;;;;;4973865;28;20410;-77
2021/03/15 16:40:01;;;;;;;4.60;2.60;;;3.80;96.30;;;;;;4974786;28;20412;-77
2021/03/15 16:42:27;;;;;;;3.60;1.77;;;3.70;96.30;;;;;;4974166;28;20194;-77
2021/03/15 16:44:54;;;;;;;4.97;1.70;;;3.70;96.30;;;;;;4987579;28;20251;-77
2021/03/15 16:47:19;;;;;;;2.50;1.77;;;3.70;96.30;;;;;;4992295;28;20514;-76
2021/03/15 16:49:45;;;;;;;3.67;1.67;;;3.70;96.30;;;;;;4993792;28;20413;-77
2021/03/15 16:52:11;;;;;;;2.07;1.67;;;3.70;96.30;;;;;;4993383;28;20197;-77
2021/03/15 16:54:36;;;;;;;3.43;3.03;;;3.60;96.30;;;;;;4993688;28;20300;-77
2021/03/15 16:57:02;;;;;;;2.53;1.57;;;3.60;96.30;;;;;;4992542;28;20872;-77
2021/03/15 16:59:27;;;;;;;3.63;1.70;;;3.60;96.30;;;;;;4993569;28;20180;-76
2021/03/15 17:01:53;;;;;;;4.10;1.50;;;3.70;96.30;;;;;;4991714;28;20217;-76
2021/03/15 17:04:19;;;;;;;3.43;1.43;;;3.70;96.30;;;;;;4993321;28;20641;-78
2021/03/15 17:06:44;;;;;;;4.77;1.90;;;3.70;96.30;;;;;;4993080;28;20672;-77